sensor_id;sensor_type;location;lat;lon;timestamp;P1;durP1;ratioP1;P2;durP2;ratioP2
36827;SDS011;22766;48.042;11.192;2023-05-10T00:00:19;0.70;;;0.40;;
36827;SDS011;22766;48.042;11.192;2023-05-10T00:02:49;0.22;;;0.20;;
36827;SDS011;22766;48.042;11.192;2023-05-10T00:05:16;0.52;;;0.32;;
36827;SDS011;22766;48.042;11.192;2023-05-10T00:07:42;0.90;;;0.50;;
36827;SDS011;22766;48.042;11.192;2023-05-10T00:10:12;2.38;;;0.47;;
36827;SDS011;22766;48.042;11.192;2023-05-10T00:12:39;0.93;;;0.40;;
36827;SDS011;22766;48.042;11.192;2023-05-10T00:15:06;0.30;;;0.20;;
36827;SDS011;22766;48.042;11.192;2023-05-10T00:17:33;0.55;;;0.40;;
36827;SDS011;22766;48.042;11.192;2023-05-10T00:20:01;1.85;;;0.30;;
36827;SDS011;22766;48.042;11.192;2023-05-10T00:22:27;0.30;;;0.20;;
36827;SDS011;22766;48.042;11.192;2023-05-10T00:24:54;1.65;;;0.32;;
36827;SDS011;22766;48.042;11.192;2023-05-10T00:27:21;0.50;;;0.40;;
36827;SDS011;22766;48.042;11.192;2023-05-10T00:29:47;0.63;;;0.30;;
36827;SDS011;22766;48.042;11.192;2023-05-10T00:32:14;0.47;;;0.30;;
36827;SDS011;22766;48.042;11.192;2023-05-10T00:34:42;0.52;;;0.30;;
36827;SDS011;22766;48.042;11.192;2023-05-10T00:37:08;0.63;;;0.30;;
36827;SDS011;22766;48.042;11.192;2023-05-10T00:39:35;3.25;;;0.70;;
36827;SDS011;22766;48.042;11.192;2023-05-10T00:42:02;0.50;;;0.32;;
36827;SDS011;22766;48.042;11.192;2023-05-10T00:44:29;0.55;;;0.20;;
36827;SDS011;22766;48.042;11.192;2023-05-10T00:46:57;0.22;;;0.17;;
36827;SDS011;22766;48.042;11.192;2023-05-10T00:49:26;1.48;;;0.30;;
36827;SDS011;22766;48.042;11.192;2023-05-10T00:51:53;2.45;;;0.20;;
36827;SDS011;22766;48.042;11.192;2023-05-10T00:54:19;0.95;;;0.20;;
36827;SDS011;22766;48.042;11.192;2023-05-10T00:56:46;0.40;;;0.30;;
36827;SDS011;22766;48.042;11.192;2023-05-10T00:59:16;1.20;;;0.32;;
36827;SDS011;22766;48.042;11.192;2023-05-10T01:01:44;0.10;;;0.10;;
36827;SDS011;22766;48.042;11.192;2023-05-10T01:04:12;0.20;;;0.20;;
36827;SDS011;22766;48.042;11.192;2023-05-10T01:06:41;0.22;;;0.20;;
36827;SDS011;22766;48.042;11.192;2023-05-10T01:09:07;0.77;;;0.40;;
36827;SDS011;22766;48.042;11.192;2023-05-10T01:11:35;0.43;;;0.22;;
36827;SDS011;22766;48.042;11.192;2023-05-10T01:14:03;0.52;;;0.28;;
36827;SDS011;22766;48.042;11.192;2023-05-10T01:16:35;0.88;;;0.47;;
36827;SDS011;22766;48.042;11.192;2023-05-10T01:19:05;0.30;;;0.20;;
36827;SDS011;22766;48.042;11.192;2023-05-10T01:21:41;0.30;;;0.25;;
36827;SDS011;22766;48.042;11.192;2023-05-10T01:38:36;0.40;;;0.28;;
36827;SDS011;22766;48.042;11.192;2023-05-10T01:46:17;0.10;;;0.10;;
36827;SDS011;22766;48.042;11.192;2023-05-10T01:48:55;0.47;;;0.20;;
36827;SDS011;22766;48.042;11.192;2023-05-10T01:51:24;0.20;;;0.10;;
36827;SDS011;22766;48.042;11.192;2023-05-10T01:53:54;0.20;;;0.20;;
36827;SDS011;22766;48.042;11.192;2023-05-10T01:56:28;0.20;;;0.20;;
36827;SDS011;22766;48.042;11.192;2023-05-10T01:58:57;0.45;;;0.22;;
36827;SDS011;22766;48.042;11.192;2023-05-10T02:01:26;0.55;;;0.25;;
36827;SDS011;22766;48.042;11.192;2023-05-10T02:03:53;0.45;;;0.30;;
36827;SDS011;22766;48.042;11.192;2023-05-10T02:06:22;0.10;;;0.10;;
36827;SDS011;22766;48.042;11.192;2023-05-10T02:08:51;0.55;;;0.30;;
36827;SDS011;22766;48.042;11.192;2023-05-10T02:11:20;0.30;;;0.22;;
36827;SDS011;22766;48.042;11.192;2023-05-10T02:13:48;0.30;;;0.20;;
36827;SDS011;22766;48.042;11.192;2023-05-10T02:16:16;0.65;;;0.30;;
36827;SDS011;22766;48.042;11.192;2023-05-10T02:18:48;0.52;;;0.28;;
36827;SDS011;22766;48.042;11.192;2023-05-10T02:21:16;2.20;;;0.30;;
36827;SDS011;22766;48.042;11.192;2023-05-10T02:23:44;0.17;;;0.15;;
36827;SDS011;22766;48.042;11.192;2023-05-10T02:26:11;0.10;;;0.10;;
36827;SDS011;22766;48.042;11.192;2023-05-10T02:28:41;0.30;;;0.10;;
36827;SDS011;22766;48.042;11.192;2023-05-10T02:31:09;0.30;;;0.10;;
36827;SDS011;22766;48.042;11.192;2023-05-10T02:33:38;0.30;;;0.15;;
36827;SDS011;22766;48.042;11.192;2023-05-10T02:36:07;0.20;;;0.20;;
36827;SDS011;22766;48.042;11.192;2023-05-10T02:38:36;0.10;;;0.03;;
36827;SDS011;22766;48.042;11.192;2023-05-10T02:41:03;0.38;;;0.20;;
36827;SDS011;22766;48.042;11.192;2023-05-10T02:43:32;0.10;;;0.10;;
36827;SDS011;22766;48.042;11.192;2023-05-10T02:45:59;0.25;;;0.20;;
36827;SDS011;22766;48.042;11.192;2023-05-10T02:48:27;0.98;;;0.20;;
36827;SDS011;22766;48.042;11.192;2023-05-10T02:50:55;1.13;;;0.20;;
36827;SDS011;22766;48.042;11.192;2023-05-10T02:53:33;0.10;;;0.10;;
36827;SDS011;22766;48.042;11.192;2023-05-10T02:56:04;0.40;;;0.20;;
36827;SDS011;22766;48.042;11.192;2023-05-10T02:58:35;1.95;;;0.10;;
36827;SDS011;22766;48.042;11.192;2023-05-10T03:01:02;0.13;;;0.13;;
36827;SDS011;22766;48.042;11.192;2023-05-10T03:03:29;1.02;;;0.20;;
36827;SDS011;22766;48.042;11.192;2023-05-10T03:05:56;0.10;;;0.10;;
36827;SDS011;22766;48.042;11.192;2023-05-10T03:08:24;0.30;;;0.10;;
36827;SDS011;22766;48.042;11.192;2023-05-10T03:10:55;0.10;;;0.10;;
36827;SDS011;22766;48.042;11.192;2023-05-10T03:13:31;0.10;;;0.10;;
36827;SDS011;22766;48.042;11.192;2023-05-10T03:16:07;1.05;;;0.13;;
36827;SDS011;22766;48.042;11.192;2023-05-10T03:18:50;0.10;;;0.10;;
36827;SDS011;22766;48.042;11.192;2023-05-10T03:21:23;2.70;;;0.20;;
36827;SDS011;22766;48.042;11.192;2023-05-10T03:24:07;0.25;;;0.15;;
36827;SDS011;22766;48.042;11.192;2023-05-10T03:26:39;0.43;;;0.17;;
36827;SDS011;22766;48.042;11.192;2023-05-10T03:29:12;0.13;;;0.13;;
36827;SDS011;22766;48.042;11.192;2023-05-10T03:31:40;0.13;;;0.13;;
36827;SDS011;22766;48.042;11.192;2023-05-10T03:34:07;0.45;;;0.32;;
36827;SDS011;22766;48.042;11.192;2023-05-10T03:36:34;0.15;;;0.10;;
36827;SDS011;22766;48.042;11.192;2023-05-10T03:39:00;0.05;;;0.05;;
36827;SDS011;22766;48.042;11.192;2023-05-10T03:41:27;1.27;;;0.13;;
36827;SDS011;22766;48.042;11.192;2023-05-10T03:43:54;0.30;;;0.10;;
36827;SDS011;22766;48.042;11.192;2023-05-10T03:46:21;2.08;;;0.10;;
36827;SDS011;22766;48.042;11.192;2023-05-10T03:48:48;2.63;;;0.20;;
36827;SDS011;22766;48.042;11.192;2023-05-10T03:51:14;0.40;;;0.20;;
36827;SDS011;22766;48.042;11.192;2023-05-10T03:53:41;0.22;;;0.17;;
36827;SDS011;22766;48.042;11.192;2023-05-10T03:56:07;0.10;;;0.10;;
36827;SDS011;22766;48.042;11.192;2023-05-10T03:58:34;0.88;;;0.20;;
36827;SDS011;22766;48.042;11.192;2023-05-10T04:01:01;0.28;;;0.20;;
36827;SDS011;22766;48.042;11.192;2023-05-10T04:03:29;0.35;;;0.30;;
36827;SDS011;22766;48.042;11.192;2023-05-10T04:06:02;0.10;;;0.10;;
36827;SDS011;22766;48.042;11.192;2023-05-10T04:08:29;0.10;;;0.10;;
36827;SDS011;22766;48.042;11.192;2023-05-10T04:11:05;0.00;;;0.00;;
36827;SDS011;22766;48.042;11.192;2023-05-10T04:13:36;0.00;;;0.00;;
36827;SDS011;22766;48.042;11.192;2023-05-10T04:16:03;0.10;;;0.10;;
36827;SDS011;22766;48.042;11.192;2023-05-10T04:18:30;0.20;;;0.10;;
36827;SDS011;22766;48.042;11.192;2023-05-10T04:20:57;0.10;;;0.10;;
36827;SDS011;22766;48.042;11.192;2023-05-10T04:23:24;0.10;;;0.10;;
36827;SDS011;22766;48.042;11.192;2023-05-10T04:25:51;0.30;;;0.13;;
36827;SDS011;22766;48.042;11.192;2023-05-10T04:28:17;0.40;;;0.20;;
36827;SDS011;22766;48.042;11.192;2023-05-10T04:30:44;0.95;;;0.10;;
36827;SDS011;22766;48.042;11.192;2023-05-10T04:33:11;0.30;;;0.10;;
36827;SDS011;22766;48.042;11.192;2023-05-10T04:35:38;0.40;;;0.10;;
36827;SDS011;22766;48.042;11.192;2023-05-10T04:38:06;3.85;;;0.35;;
36827;SDS011;22766;48.042;11.192;2023-05-10T04:40:33;0.13;;;0.10;;
36827;SDS011;22766;48.042;11.192;2023-05-10T04:43:00;1.02;;;0.10;;
36827;SDS011;22766;48.042;11.192;2023-05-10T04:45:27;0.10;;;0.10;;
36827;SDS011;22766;48.042;11.192;2023-05-10T04:47:53;1.00;;;0.15;;
36827;SDS011;22766;48.042;11.192;2023-05-10T04:50:20;0.10;;;0.10;;
36827;SDS011;22766;48.042;11.192;2023-05-10T04:52:47;5.00;;;0.30;;
36827;SDS011;22766;48.042;11.192;2023-05-10T04:55:13;0.10;;;0.10;;
36827;SDS011;22766;48.042;11.192;2023-05-10T04:57:40;0.22;;;0.20;;
36827;SDS011;22766;48.042;11.192;2023-05-10T05:00:07;0.47;;;0.25;;
36827;SDS011;22766;48.042;11.192;2023-05-10T05:02:34;0.20;;;0.10;;
36827;SDS011;22766;48.042;11.192;2023-05-10T05:05:01;0.43;;;0.28;;
36827;SDS011;22766;48.042;11.192;2023-05-10T05:07:28;0.20;;;0.20;;
36827;SDS011;22766;48.042;11.192;2023-05-10T05:09:55;0.20;;;0.15;;
36827;SDS011;22766;48.042;11.192;2023-05-10T05:12:21;0.30;;;0.15;;
36827;SDS011;22766;48.042;11.192;2023-05-10T05:14:48;2.60;;;0.20;;
36827;SDS011;22766;48.042;11.192;2023-05-10T05:17:14;0.60;;;0.20;;
36827;SDS011;22766;48.042;11.192;2023-05-10T05:19:41;1.75;;;0.20;;
36827;SDS011;22766;48.042;11.192;2023-05-10T05:22:08;0.15;;;0.10;;
36827;SDS011;22766;48.042;11.192;2023-05-10T05:24:35;0.93;;;0.17;;
36827;SDS011;22766;48.042;11.192;2023-05-10T05:27:04;0.77;;;0.28;;
36827;SDS011;22766;48.042;11.192;2023-05-10T05:29:31;0.95;;;0.17;;
36827;SDS011;22766;48.042;11.192;2023-05-10T05:31:58;0.30;;;0.20;;
36827;SDS011;22766;48.042;11.192;2023-05-10T05:34:24;0.30;;;0.28;;
36827;SDS011;22766;48.042;11.192;2023-05-10T05:36:51;0.30;;;0.20;;
36827;SDS011;22766;48.042;11.192;2023-05-10T05:39:18;0.82;;;0.28;;
36827;SDS011;22766;48.042;11.192;2023-05-10T05:41:44;1.25;;;0.60;;
36827;SDS011;22766;48.042;11.192;2023-05-10T05:44:12;0.35;;;0.20;;
36827;SDS011;22766;48.042;11.192;2023-05-10T05:46:38;0.13;;;0.13;;
36827;SDS011;22766;48.042;11.192;2023-05-10T05:49:05;0.40;;;0.10;;
36827;SDS011;22766;48.042;11.192;2023-05-10T05:51:32;0.35;;;0.20;;
36827;SDS011;22766;48.042;11.192;2023-05-10T05:53:58;0.17;;;0.10;;
36827;SDS011;22766;48.042;11.192;2023-05-10T05:56:25;0.40;;;0.20;;
36827;SDS011;22766;48.042;11.192;2023-05-10T05:58:52;1.40;;;0.20;;
36827;SDS011;22766;48.042;11.192;2023-05-10T06:01:19;0.88;;;0.30;;
36827;SDS011;22766;48.042;11.192;2023-05-10T06:03:45;1.25;;;0.20;;
36827;SDS011;22766;48.042;11.192;2023-05-10T06:06:12;0.50;;;0.30;;
36827;SDS011;22766;48.042;11.192;2023-05-10T06:08:39;0.85;;;0.25;;
36827;SDS011;22766;48.042;11.192;2023-05-10T06:11:06;1.42;;;0.35;;
36827;SDS011;22766;48.042;11.192;2023-05-10T06:13:33;0.43;;;0.30;;
36827;SDS011;22766;48.042;11.192;2023-05-10T06:16:02;0.32;;;0.20;;
36827;SDS011;22766;48.042;11.192;2023-05-10T06:18:28;1.50;;;0.30;;
36827;SDS011;22766;48.042;11.192;2023-05-10T06:20:55;3.03;;;0.30;;
36827;SDS011;22766;48.042;11.192;2023-05-10T06:23:22;0.75;;;0.45;;
36827;SDS011;22766;48.042;11.192;2023-05-10T06:25:49;1.80;;;0.47;;
36827;SDS011;22766;48.042;11.192;2023-05-10T06:28:15;0.50;;;0.40;;
36827;SDS011;22766;48.042;11.192;2023-05-10T06:30:42;1.83;;;0.40;;
36827;SDS011;22766;48.042;11.192;2023-05-10T06:33:09;0.30;;;0.17;;
36827;SDS011;22766;48.042;11.192;2023-05-10T06:35:36;0.50;;;0.22;;
36827;SDS011;22766;48.042;11.192;2023-05-10T06:38:03;0.60;;;0.40;;
36827;SDS011;22766;48.042;11.192;2023-05-10T06:40:29;0.38;;;0.32;;
36827;SDS011;22766;48.042;11.192;2023-05-10T06:42:56;1.75;;;0.30;;
36827;SDS011;22766;48.042;11.192;2023-05-10T06:45:23;2.65;;;0.40;;
36827;SDS011;22766;48.042;11.192;2023-05-10T06:47:49;0.73;;;0.30;;
36827;SDS011;22766;48.042;11.192;2023-05-10T06:50:16;0.20;;;0.20;;
36827;SDS011;22766;48.042;11.192;2023-05-10T06:52:42;0.20;;;0.20;;
36827;SDS011;22766;48.042;11.192;2023-05-10T06:55:10;1.33;;;0.30;;
36827;SDS011;22766;48.042;11.192;2023-05-10T06:57:36;2.05;;;0.32;;
36827;SDS011;22766;48.042;11.192;2023-05-10T07:00:03;0.30;;;0.20;;
36827;SDS011;22766;48.042;11.192;2023-05-10T07:02:31;0.70;;;0.30;;
36827;SDS011;22766;48.042;11.192;2023-05-10T07:04:57;0.32;;;0.20;;
36827;SDS011;22766;48.042;11.192;2023-05-10T07:07:28;0.43;;;0.30;;
36827;SDS011;22766;48.042;11.192;2023-05-10T07:09:55;0.65;;;0.40;;
36827;SDS011;22766;48.042;11.192;2023-05-10T07:12:23;0.22;;;0.20;;
36827;SDS011;22766;48.042;11.192;2023-05-10T07:14:50;1.00;;;0.22;;
36827;SDS011;22766;48.042;11.192;2023-05-10T07:17:17;0.52;;;0.22;;
36827;SDS011;22766;48.042;11.192;2023-05-10T07:19:43;0.30;;;0.25;;
36827;SDS011;22766;48.042;11.192;2023-05-10T07:22:10;0.30;;;0.20;;
36827;SDS011;22766;48.042;11.192;2023-05-10T07:24:37;7.85;;;0.50;;
36827;SDS011;22766;48.042;11.192;2023-05-10T07:27:04;1.85;;;0.30;;
36827;SDS011;22766;48.042;11.192;2023-05-10T07:29:30;1.75;;;0.30;;
36827;SDS011;22766;48.042;11.192;2023-05-10T07:31:57;0.35;;;0.30;;
36827;SDS011;22766;48.042;11.192;2023-05-10T07:34:24;0.20;;;0.20;;
36827;SDS011;22766;48.042;11.192;2023-05-10T07:36:51;1.10;;;0.20;;
36827;SDS011;22766;48.042;11.192;2023-05-10T07:39:18;0.40;;;0.20;;
36827;SDS011;22766;48.042;11.192;2023-05-10T07:41:53;1.27;;;0.50;;
36827;SDS011;22766;48.042;11.192;2023-05-10T07:44:20;0.68;;;0.30;;
36827;SDS011;22766;48.042;11.192;2023-05-10T07:46:47;0.57;;;0.57;;
36827;SDS011;22766;48.042;11.192;2023-05-10T07:49:14;0.35;;;0.20;;
36827;SDS011;22766;48.042;11.192;2023-05-10T07:51:41;0.32;;;0.20;;
36827;SDS011;22766;48.042;11.192;2023-05-10T07:54:08;0.47;;;0.35;;
36827;SDS011;22766;48.042;11.192;2023-05-10T07:56:35;3.72;;;0.40;;
36827;SDS011;22766;48.042;11.192;2023-05-10T07:59:02;0.25;;;0.20;;
36827;SDS011;22766;48.042;11.192;2023-05-10T08:01:35;0.32;;;0.20;;
36827;SDS011;22766;48.042;11.192;2023-05-10T08:04:02;0.68;;;0.20;;
36827;SDS011;22766;48.042;11.192;2023-05-10T08:06:29;1.08;;;0.43;;
36827;SDS011;22766;48.042;11.192;2023-05-10T08:08:56;0.22;;;0.20;;
36827;SDS011;22766;48.042;11.192;2023-05-10T08:11:23;0.30;;;0.20;;
36827;SDS011;22766;48.042;11.192;2023-05-10T08:13:52;4.32;;;0.22;;
36827;SDS011;22766;48.042;11.192;2023-05-10T08:16:19;0.45;;;0.28;;
36827;SDS011;22766;48.042;11.192;2023-05-10T08:18:46;0.32;;;0.25;;
36827;SDS011;22766;48.042;11.192;2023-05-10T08:21:13;2.53;;;0.22;;
36827;SDS011;22766;48.042;11.192;2023-05-10T08:23:40;1.20;;;0.73;;
36827;SDS011;22766;48.042;11.192;2023-05-10T08:26:07;0.50;;;0.22;;
36827;SDS011;22766;48.042;11.192;2023-05-10T08:28:34;0.55;;;0.40;;
36827;SDS011;22766;48.042;11.192;2023-05-10T08:31:00;3.50;;;0.40;;
36827;SDS011;22766;48.042;11.192;2023-05-10T08:33:27;0.20;;;0.10;;
36827;SDS011;22766;48.042;11.192;2023-05-10T08:35:54;1.25;;;0.30;;
36827;SDS011;22766;48.042;11.192;2023-05-10T08:38:20;0.43;;;0.30;;
36827;SDS011;22766;48.042;11.192;2023-05-10T08:40:47;0.55;;;0.30;;
36827;SDS011;22766;48.042;11.192;2023-05-10T08:43:17;0.50;;;0.30;;
36827;SDS011;22766;48.042;11.192;2023-05-10T08:45:44;0.88;;;0.30;;
36827;SDS011;22766;48.042;11.192;2023-05-10T08:48:14;0.40;;;0.28;;
36827;SDS011;22766;48.042;11.192;2023-05-10T08:50:41;0.90;;;0.50;;
36827;SDS011;22766;48.042;11.192;2023-05-10T08:53:12;0.30;;;0.20;;
36827;SDS011;22766;48.042;11.192;2023-05-10T08:55:41;2.72;;;0.68;;
36827;SDS011;22766;48.042;11.192;2023-05-10T08:58:09;1.65;;;0.30;;
36827;SDS011;22766;48.042;11.192;2023-05-10T09:00:36;0.75;;;0.20;;
36827;SDS011;22766;48.042;11.192;2023-05-10T09:03:04;0.40;;;0.20;;
36827;SDS011;22766;48.042;11.192;2023-05-10T09:05:32;0.50;;;0.20;;
36827;SDS011;22766;48.042;11.192;2023-05-10T09:07:59;0.47;;;0.20;;
36827;SDS011;22766;48.042;11.192;2023-05-10T09:10:27;0.15;;;0.08;;
36827;SDS011;22766;48.042;11.192;2023-05-10T09:12:55;1.00;;;0.55;;
36827;SDS011;22766;48.042;11.192;2023-05-10T09:15:24;2.38;;;0.40;;
36827;SDS011;22766;48.042;11.192;2023-05-10T09:17:52;0.73;;;0.28;;
36827;SDS011;22766;48.042;11.192;2023-05-10T09:20:18;0.30;;;0.15;;
36827;SDS011;22766;48.042;11.192;2023-05-10T09:22:45;0.10;;;0.10;;
36827;SDS011;22766;48.042;11.192;2023-05-10T09:25:15;0.10;;;0.10;;
36827;SDS011;22766;48.042;11.192;2023-05-10T09:30:24;0.08;;;0.08;;
36827;SDS011;22766;48.042;11.192;2023-05-10T09:32:55;0.25;;;0.20;;
36827;SDS011;22766;48.042;11.192;2023-05-10T09:35:23;0.47;;;0.20;;
36827;SDS011;22766;48.042;11.192;2023-05-10T09:37:55;0.98;;;0.25;;
36827;SDS011;22766;48.042;11.192;2023-05-10T09:40:25;0.38;;;0.30;;
36827;SDS011;22766;48.042;11.192;2023-05-10T09:43:06;0.70;;;0.22;;
36827;SDS011;22766;48.042;11.192;2023-05-10T09:45:34;0.47;;;0.17;;
36827;SDS011;22766;48.042;11.192;2023-05-10T09:48:04;0.40;;;0.20;;
36827;SDS011;22766;48.042;11.192;2023-05-10T09:50:31;3.83;;;0.20;;
36827;SDS011;22766;48.042;11.192;2023-05-10T09:52:59;1.85;;;0.20;;
36827;SDS011;22766;48.042;11.192;2023-05-10T09:58:04;0.40;;;0.20;;
36827;SDS011;22766;48.042;11.192;2023-05-10T10:00:36;0.20;;;0.20;;
36827;SDS011;22766;48.042;11.192;2023-05-10T10:03:04;1.17;;;0.52;;
36827;SDS011;22766;48.042;11.192;2023-05-10T10:05:35;0.20;;;0.20;;
36827;SDS011;22766;48.042;11.192;2023-05-10T10:08:03;0.47;;;0.47;;
36827;SDS011;22766;48.042;11.192;2023-05-10T10:10:31;0.85;;;0.20;;
36827;SDS011;22766;48.042;11.192;2023-05-10T10:12:59;0.40;;;0.20;;
36827;SDS011;22766;48.042;11.192;2023-05-10T10:15:26;0.45;;;0.20;;
36827;SDS011;22766;48.042;11.192;2023-05-10T10:17:53;0.80;;;0.30;;
36827;SDS011;22766;48.042;11.192;2023-05-10T10:20:21;0.40;;;0.25;;
36827;SDS011;22766;48.042;11.192;2023-05-10T10:22:48;1.10;;;0.50;;
36827;SDS011;22766;48.042;11.192;2023-05-10T10:25:16;0.70;;;0.40;;
36827;SDS011;22766;48.042;11.192;2023-05-10T10:30:39;0.57;;;0.30;;
36827;SDS011;22766;48.042;11.192;2023-05-10T10:36:05;0.88;;;0.20;;
36827;SDS011;22766;48.042;11.192;2023-05-10T10:38:35;0.70;;;0.22;;
36827;SDS011;22766;48.042;11.192;2023-05-10T10:41:27;1.08;;;0.30;;
36827;SDS011;22766;48.042;11.192;2023-05-10T10:57:52;0.75;;;0.40;;
36827;SDS011;22766;48.042;11.192;2023-05-10T11:00:34;2.65;;;0.57;;
36827;SDS011;22766;48.042;11.192;2023-05-10T11:05:36;4.20;;;0.40;;
36827;SDS011;22766;48.042;11.192;2023-05-10T11:10:51;1.50;;;0.68;;
36827;SDS011;22766;48.042;11.192;2023-05-10T11:13:27;3.33;;;0.57;;
36827;SDS011;22766;48.042;11.192;2023-05-10T11:15:56;4.13;;;0.60;;
36827;SDS011;22766;48.042;11.192;2023-05-10T11:18:25;2.47;;;0.80;;
36827;SDS011;22766;48.042;11.192;2023-05-10T11:20:57;1.65;;;0.60;;
36827;SDS011;22766;48.042;11.192;2023-05-10T11:23:30;2.63;;;0.90;;
36827;SDS011;22766;48.042;11.192;2023-05-10T11:26:07;2.25;;;1.00;;
36827;SDS011;22766;48.042;11.192;2023-05-10T11:31:12;3.38;;;0.98;;
36827;SDS011;22766;48.042;11.192;2023-05-10T11:33:47;3.13;;;1.08;;
36827;SDS011;22766;48.042;11.192;2023-05-10T11:36:19;4.25;;;0.70;;
36827;SDS011;22766;48.042;11.192;2023-05-10T11:38:55;5.45;;;2.05;;
36827;SDS011;22766;48.042;11.192;2023-05-10T11:41:23;1.90;;;1.27;;
36827;SDS011;22766;48.042;11.192;2023-05-10T11:43:51;2.97;;;1.20;;
36827;SDS011;22766;48.042;11.192;2023-05-10T11:46:22;4.43;;;1.45;;
36827;SDS011;22766;48.042;11.192;2023-05-10T11:48:51;4.30;;;1.08;;
36827;SDS011;22766;48.042;11.192;2023-05-10T11:51:24;2.63;;;0.93;;
36827;SDS011;22766;48.042;11.192;2023-05-10T11:53:55;1.40;;;0.50;;
36827;SDS011;22766;48.042;11.192;2023-05-10T11:56:22;1.02;;;0.40;;
36827;SDS011;22766;48.042;11.192;2023-05-10T11:58:56;1.40;;;0.30;;
36827;SDS011;22766;48.042;11.192;2023-05-10T12:01:24;0.40;;;0.22;;
36827;SDS011;22766;48.042;11.192;2023-05-10T12:03:53;1.38;;;0.40;;
36827;SDS011;22766;48.042;11.192;2023-05-10T12:06:29;0.98;;;0.30;;
36827;SDS011;22766;48.042;11.192;2023-05-10T12:09:05;1.92;;;1.02;;
36827;SDS011;22766;48.042;11.192;2023-05-10T12:11:32;0.68;;;0.50;;
36827;SDS011;22766;48.042;11.192;2023-05-10T12:14:04;0.40;;;0.30;;
36827;SDS011;22766;48.042;11.192;2023-05-10T12:16:31;0.40;;;0.40;;
36827;SDS011;22766;48.042;11.192;2023-05-10T12:18:59;0.70;;;0.50;;
36827;SDS011;22766;48.042;11.192;2023-05-10T12:21:27;1.75;;;0.63;;
36827;SDS011;22766;48.042;11.192;2023-05-10T12:23:58;4.00;;;1.33;;
36827;SDS011;22766;48.042;11.192;2023-05-10T12:26:27;0.90;;;0.60;;
36827;SDS011;22766;48.042;11.192;2023-05-10T12:28:54;3.22;;;0.63;;
36827;SDS011;22766;48.042;11.192;2023-05-10T12:31:53;2.42;;;0.57;;
36827;SDS011;22766;48.042;11.192;2023-05-10T12:36:58;4.30;;;1.23;;
36827;SDS011;22766;48.042;11.192;2023-05-10T12:39:26;1.05;;;0.50;;
36827;SDS011;22766;48.042;11.192;2023-05-10T12:41:52;1.67;;;0.70;;
36827;SDS011;22766;48.042;11.192;2023-05-10T12:44:19;2.67;;;0.90;;
36827;SDS011;22766;48.042;11.192;2023-05-10T12:46:46;1.45;;;0.60;;
36827;SDS011;22766;48.042;11.192;2023-05-10T12:49:12;1.33;;;0.73;;
36827;SDS011;22766;48.042;11.192;2023-05-10T12:51:39;2.53;;;0.90;;
36827;SDS011;22766;48.042;11.192;2023-05-10T12:54:06;1.48;;;0.70;;
36827;SDS011;22766;48.042;11.192;2023-05-10T12:56:32;2.10;;;0.45;;
36827;SDS011;22766;48.042;11.192;2023-05-10T12:58:59;0.75;;;0.45;;
36827;SDS011;22766;48.042;11.192;2023-05-10T13:01:26;0.85;;;0.50;;
36827;SDS011;22766;48.042;11.192;2023-05-10T13:03:52;1.88;;;0.68;;
36827;SDS011;22766;48.042;11.192;2023-05-10T13:06:19;2.40;;;0.90;;
36827;SDS011;22766;48.042;11.192;2023-05-10T13:08:46;2.22;;;0.43;;
36827;SDS011;22766;48.042;11.192;2023-05-10T13:11:13;2.25;;;0.40;;
36827;SDS011;22766;48.042;11.192;2023-05-10T13:13:42;0.40;;;0.38;;
36827;SDS011;22766;48.042;11.192;2023-05-10T13:16:09;1.60;;;0.60;;
36827;SDS011;22766;48.042;11.192;2023-05-10T13:18:36;0.30;;;0.30;;
36827;SDS011;22766;48.042;11.192;2023-05-10T13:21:03;1.00;;;0.68;;
36827;SDS011;22766;48.042;11.192;2023-05-10T13:23:31;0.50;;;0.20;;
36827;SDS011;22766;48.042;11.192;2023-05-10T13:25:58;1.58;;;0.32;;
36827;SDS011;22766;48.042;11.192;2023-05-10T13:28:25;1.27;;;0.43;;
36827;SDS011;22766;48.042;11.192;2023-05-10T13:30:52;0.90;;;0.43;;
36827;SDS011;22766;48.042;11.192;2023-05-10T13:33:19;1.73;;;0.35;;
36827;SDS011;22766;48.042;11.192;2023-05-10T13:35:46;0.60;;;0.32;;
36827;SDS011;22766;48.042;11.192;2023-05-10T13:38:13;0.52;;;0.30;;
36827;SDS011;22766;48.042;11.192;2023-05-10T13:40:40;0.95;;;0.30;;
36827;SDS011;22766;48.042;11.192;2023-05-10T13:43:06;3.35;;;0.40;;
36827;SDS011;22766;48.042;11.192;2023-05-10T13:45:33;0.47;;;0.20;;
36827;SDS011;22766;48.042;11.192;2023-05-10T13:48:00;0.55;;;0.30;;
36827;SDS011;22766;48.042;11.192;2023-05-10T13:50:26;1.00;;;0.30;;
36827;SDS011;22766;48.042;11.192;2023-05-10T13:52:53;1.08;;;0.20;;
36827;SDS011;22766;48.042;11.192;2023-05-10T13:55:20;0.30;;;0.20;;
36827;SDS011;22766;48.042;11.192;2023-05-10T13:57:46;0.30;;;0.25;;
36827;SDS011;22766;48.042;11.192;2023-05-10T14:00:13;0.10;;;0.10;;
36827;SDS011;22766;48.042;11.192;2023-05-10T14:02:41;1.25;;;0.28;;
36827;SDS011;22766;48.042;11.192;2023-05-10T14:05:08;1.52;;;0.70;;
36827;SDS011;22766;48.042;11.192;2023-05-10T14:07:35;1.08;;;0.52;;
36827;SDS011;22766;48.042;11.192;2023-05-10T14:10:01;0.65;;;0.50;;
36827;SDS011;22766;48.042;11.192;2023-05-10T14:12:29;6.25;;;0.73;;
36827;SDS011;22766;48.042;11.192;2023-05-10T14:14:55;1.45;;;0.77;;
36827;SDS011;22766;48.042;11.192;2023-05-10T14:17:22;2.80;;;1.20;;
36827;SDS011;22766;48.042;11.192;2023-05-10T14:19:49;2.22;;;1.13;;
36827;SDS011;22766;48.042;11.192;2023-05-10T14:22:16;2.55;;;1.50;;
36827;SDS011;22766;48.042;11.192;2023-05-10T14:24:43;0.82;;;0.40;;
36827;SDS011;22766;48.042;11.192;2023-05-10T14:27:12;0.70;;;0.40;;
36827;SDS011;22766;48.042;11.192;2023-05-10T14:29:39;2.38;;;0.65;;
36827;SDS011;22766;48.042;11.192;2023-05-10T14:32:06;2.17;;;0.47;;
36827;SDS011;22766;48.042;11.192;2023-05-10T14:34:33;0.90;;;0.40;;
36827;SDS011;22766;48.042;11.192;2023-05-10T14:36:59;3.28;;;0.30;;
36827;SDS011;22766;48.042;11.192;2023-05-10T14:39:26;1.90;;;0.52;;
36827;SDS011;22766;48.042;11.192;2023-05-10T14:41:56;0.57;;;0.40;;
36827;SDS011;22766;48.042;11.192;2023-05-10T14:44:23;0.57;;;0.30;;
36827;SDS011;22766;48.042;11.192;2023-05-10T14:46:50;0.25;;;0.20;;
36827;SDS011;22766;48.042;11.192;2023-05-10T14:49:16;1.40;;;0.32;;
36827;SDS011;22766;48.042;11.192;2023-05-10T14:51:43;1.98;;;0.50;;
36827;SDS011;22766;48.042;11.192;2023-05-10T14:54:11;2.70;;;0.50;;
36827;SDS011;22766;48.042;11.192;2023-05-10T14:56:37;0.65;;;0.43;;
36827;SDS011;22766;48.042;11.192;2023-05-10T14:59:05;1.50;;;0.40;;
36827;SDS011;22766;48.042;11.192;2023-05-10T15:01:32;1.45;;;0.40;;
36827;SDS011;22766;48.042;11.192;2023-05-10T15:04:01;0.50;;;0.38;;
36827;SDS011;22766;48.042;11.192;2023-05-10T15:06:31;2.17;;;0.43;;
36827;SDS011;22766;48.042;11.192;2023-05-10T15:08:58;1.90;;;0.70;;
36827;SDS011;22766;48.042;11.192;2023-05-10T15:11:26;6.00;;;0.70;;
36827;SDS011;22766;48.042;11.192;2023-05-10T15:13:53;1.48;;;0.82;;
36827;SDS011;22766;48.042;11.192;2023-05-10T15:16:20;1.67;;;0.60;;
36827;SDS011;22766;48.042;11.192;2023-05-10T15:18:47;1.08;;;0.65;;
36827;SDS011;22766;48.042;11.192;2023-05-10T15:21:14;1.90;;;0.50;;
36827;SDS011;22766;48.042;11.192;2023-05-10T15:23:41;1.65;;;0.30;;
36827;SDS011;22766;48.042;11.192;2023-05-10T15:26:07;1.20;;;0.35;;
36827;SDS011;22766;48.042;11.192;2023-05-10T15:28:34;1.40;;;0.30;;
36827;SDS011;22766;48.042;11.192;2023-05-10T15:31:01;2.85;;;1.35;;
36827;SDS011;22766;48.042;11.192;2023-05-10T15:33:28;0.77;;;0.40;;